sensor_id;sensor_type;location;lat;lon;timestamp;P1;durP1;ratioP1;P2;durP2;ratioP2
64868;SDS011;51349;52.424;10.840;2023-03-14T00:04:34;2.38;;;1.80;;
64868;SDS011;51349;52.424;10.840;2023-03-14T00:09:35;2.08;;;1.70;;
64868;SDS011;51349;52.424;10.840;2023-03-14T00:14:39;2.00;;;1.90;;
64868;SDS011;51349;52.424;10.840;2023-03-14T00:19:42;1.95;;;1.85;;
64868;SDS011;51349;52.424;10.840;2023-03-14T00:24:43;1.70;;;1.60;;
64868;SDS011;51349;52.424;10.840;2023-03-14T00:29:43;2.75;;;1.63;;
64868;SDS011;51349;52.424;10.840;2023-03-14T00:34:44;1.75;;;1.65;;
64868;SDS011;51349;52.424;10.840;2023-03-14T00:39:44;2.05;;;1.67;;
64868;SDS011;51349;52.424;10.840;2023-03-14T00:44:45;1.63;;;1.52;;
64868;SDS011;51349;52.424;10.840;2023-03-14T00:49:46;2.10;;;1.50;;
64868;SDS011;51349;52.424;10.840;2023-03-14T00:54:47;1.70;;;1.60;;
64868;SDS011;51349;52.424;10.840;2023-03-14T00:59:47;1.67;;;1.53;;
64868;SDS011;51349;52.424;10.840;2023-03-14T01:04:48;3.38;;;1.80;;
64868;SDS011;51349;52.424;10.840;2023-03-14T01:09:51;1.50;;;1.40;;
64868;SDS011;51349;52.424;10.840;2023-03-14T01:14:52;2.08;;;1.30;;
64868;SDS011;51349;52.424;10.840;2023-03-14T01:19:53;1.50;;;1.40;;
64868;SDS011;51349;52.424;10.840;2023-03-14T01:24:53;2.33;;;1.67;;
64868;SDS011;51349;52.424;10.840;2023-03-14T01:29:54;1.92;;;1.83;;
64868;SDS011;51349;52.424;10.840;2023-03-14T01:34:55;1.60;;;1.50;;
64868;SDS011;51349;52.424;10.840;2023-03-14T01:39:55;2.95;;;1.65;;
64868;SDS011;51349;52.424;10.840;2023-03-14T01:45:00;1.70;;;1.60;;
64868;SDS011;51349;52.424;10.840;2023-03-14T01:50:03;2.17;;;1.70;;
64868;SDS011;51349;52.424;10.840;2023-03-14T01:55:16;1.63;;;1.52;;
64868;SDS011;51349;52.424;10.840;2023-03-14T02:00:24;1.67;;;1.55;;
64868;SDS011;51349;52.424;10.840;2023-03-14T02:05:26;1.50;;;1.40;;
64868;SDS011;51349;52.424;10.840;2023-03-14T02:10:33;3.08;;;1.38;;
64868;SDS011;51349;52.424;10.840;2023-03-14T02:15:36;1.40;;;1.30;;
64868;SDS011;51349;52.424;10.840;2023-03-14T02:20:42;2.05;;;1.17;;
64868;SDS011;51349;52.424;10.840;2023-03-14T02:26:03;1.27;;;1.17;;
64868;SDS011;51349;52.424;10.840;2023-03-14T02:31:10;1.30;;;1.20;;
64868;SDS011;51349;52.424;10.840;2023-03-14T02:36:12;1.80;;;1.00;;
64868;SDS011;51349;52.424;10.840;2023-03-14T02:41:14;1.23;;;1.10;;
64868;SDS011;51349;52.424;10.840;2023-03-14T02:46:16;3.25;;;1.30;;
64868;SDS011;51349;52.424;10.840;2023-03-14T02:51:19;1.08;;;1.08;;
64868;SDS011;51349;52.424;10.840;2023-03-14T02:56:21;1.10;;;1.10;;
64868;SDS011;51349;52.424;10.840;2023-03-14T03:01:22;1.77;;;0.90;;
64868;SDS011;51349;52.424;10.840;2023-03-14T03:06:23;1.13;;;1.00;;
64868;SDS011;51349;52.424;10.840;2023-03-14T03:11:23;1.73;;;1.25;;
64868;SDS011;51349;52.424;10.840;2023-03-14T03:16:24;1.90;;;1.10;;
64868;SDS011;51349;52.424;10.840;2023-03-14T03:21:28;1.35;;;1.08;;
64868;SDS011;51349;52.424;10.840;2023-03-14T03:26:28;3.03;;;1.77;;
64868;SDS011;51349;52.424;10.840;2023-03-14T03:31:29;2.25;;;1.20;;
64868;SDS011;51349;52.424;10.840;2023-03-14T03:36:30;1.15;;;1.08;;
64868;SDS011;51349;52.424;10.840;2023-03-14T03:41:30;1.23;;;1.00;;
64868;SDS011;51349;52.424;10.840;2023-03-14T03:46:32;2.85;;;1.23;;
64868;SDS011;51349;52.424;10.840;2023-03-14T03:51:33;1.58;;;1.20;;
64868;SDS011;51349;52.424;10.840;2023-03-14T03:56:33;1.20;;;1.00;;
64868;SDS011;51349;52.424;10.840;2023-03-14T04:01:34;1.67;;;1.30;;
64868;SDS011;51349;52.424;10.840;2023-03-14T04:06:34;3.08;;;1.20;;
64868;SDS011;51349;52.424;10.840;2023-03-14T04:11:36;2.17;;;1.37;;
64868;SDS011;51349;52.424;10.840;2023-03-14T04:16:37;1.67;;;1.40;;
64868;SDS011;51349;52.424;10.840;2023-03-14T04:21:38;1.63;;;1.10;;
64868;SDS011;51349;52.424;10.840;2023-03-14T04:26:44;1.58;;;1.48;;
64868;SDS011;51349;52.424;10.840;2023-03-14T04:31:45;2.03;;;1.20;;
64868;SDS011;51349;52.424;10.840;2023-03-14T04:36:45;1.47;;;1.17;;
64868;SDS011;51349;52.424;10.840;2023-03-14T04:41:46;1.80;;;1.20;;
64868;SDS011;51349;52.424;10.840;2023-03-14T04:46:47;1.63;;;1.30;;
64868;SDS011;51349;52.424;10.840;2023-03-14T04:51:47;1.50;;;1.40;;
64868;SDS011;51349;52.424;10.840;2023-03-14T04:56:50;3.47;;;1.20;;
64868;SDS011;51349;52.424;10.840;2023-03-14T05:01:51;1.67;;;1.30;;
64868;SDS011;51349;52.424;10.840;2023-03-14T05:06:54;1.70;;;1.60;;
64868;SDS011;51349;52.424;10.840;2023-03-14T05:11:55;1.77;;;1.30;;
64868;SDS011;51349;52.424;10.840;2023-03-14T05:16:59;4.03;;;1.40;;
64868;SDS011;51349;52.424;10.840;2023-03-14T05:21:59;1.20;;;1.10;;
64868;SDS011;51349;52.424;10.840;2023-03-14T05:27:00;1.13;;;1.00;;
64868;SDS011;51349;52.424;10.840;2023-03-14T05:32:01;1.20;;;1.10;;
64868;SDS011;51349;52.424;10.840;2023-03-14T05:37:05;0.90;;;0.90;;
64868;SDS011;51349;52.424;10.840;2023-03-14T05:42:05;0.93;;;0.82;;
64868;SDS011;51349;52.424;10.840;2023-03-14T05:47:06;0.70;;;0.70;;
64868;SDS011;51349;52.424;10.840;2023-03-14T05:52:06;1.33;;;1.00;;
64868;SDS011;51349;52.424;10.840;2023-03-14T05:57:07;2.00;;;1.00;;
64868;SDS011;51349;52.424;10.840;2023-03-14T06:02:08;2.50;;;0.70;;
64868;SDS011;51349;52.424;10.840;2023-03-14T06:07:08;1.03;;;0.73;;
64868;SDS011;51349;52.424;10.840;2023-03-14T06:12:09;0.90;;;0.50;;
64868;SDS011;51349;52.424;10.840;2023-03-14T06:17:10;1.10;;;0.60;;
64868;SDS011;51349;52.424;10.840;2023-03-14T06:22:10;0.63;;;0.60;;
64868;SDS011;51349;52.424;10.840;2023-03-14T06:27:11;1.20;;;0.70;;
64868;SDS011;51349;52.424;10.840;2023-03-14T06:32:12;0.70;;;0.70;;
64868;SDS011;51349;52.424;10.840;2023-03-14T06:37:12;2.10;;;0.90;;
64868;SDS011;51349;52.424;10.840;2023-03-14T06:42:13;1.23;;;0.80;;
64868;SDS011;51349;52.424;10.840;2023-03-14T06:47:13;1.03;;;0.80;;
64868;SDS011;51349;52.424;10.840;2023-03-14T06:52:14;2.50;;;0.90;;
64868;SDS011;51349;52.424;10.840;2023-03-14T06:57:15;1.40;;;0.93;;
64868;SDS011;51349;52.424;10.840;2023-03-14T07:02:15;2.00;;;1.00;;
64868;SDS011;51349;52.424;10.840;2023-03-14T07:07:19;0.90;;;0.90;;
64868;SDS011;51349;52.424;10.840;2023-03-14T07:12:20;0.60;;;0.53;;
64868;SDS011;51349;52.424;10.840;2023-03-14T07:17:21;1.67;;;0.97;;
64868;SDS011;51349;52.424;10.840;2023-03-14T07:22:21;2.30;;;1.10;;
64868;SDS011;51349;52.424;10.840;2023-03-14T07:27:22;1.52;;;0.90;;
64868;SDS011;51349;52.424;10.840;2023-03-14T07:32:23;1.37;;;0.70;;
64868;SDS011;51349;52.424;10.840;2023-03-14T07:37:23;1.75;;;0.90;;
64868;SDS011;51349;52.424;10.840;2023-03-14T07:42:24;2.10;;;0.80;;
64868;SDS011;51349;52.424;10.840;2023-03-14T07:47:24;2.35;;;0.90;;
64868;SDS011;51349;52.424;10.840;2023-03-14T07:52:25;1.10;;;0.65;;
64868;SDS011;51349;52.424;10.840;2023-03-14T07:57:26;2.90;;;0.75;;
64868;SDS011;51349;52.424;10.840;2023-03-14T08:02:27;1.90;;;0.97;;
64868;SDS011;51349;52.424;10.840;2023-03-14T08:07:27;1.15;;;0.70;;
64868;SDS011;51349;52.424;10.840;2023-03-14T08:12:28;1.73;;;0.97;;
64868;SDS011;51349;52.424;10.840;2023-03-14T08:17:28;1.42;;;0.85;;
64868;SDS011;51349;52.424;10.840;2023-03-14T08:22:29;1.58;;;0.80;;
64868;SDS011;51349;52.424;10.840;2023-03-14T08:27:30;1.70;;;0.98;;
64868;SDS011;51349;52.424;10.840;2023-03-14T08:32:30;3.75;;;1.20;;
64868;SDS011;51349;52.424;10.840;2023-03-14T08:37:35;2.17;;;1.02;;
64868;SDS011;51349;52.424;10.840;2023-03-14T08:42:36;1.40;;;1.10;;
64868;SDS011;51349;52.424;10.840;2023-03-14T08:47:38;1.88;;;1.10;;
64868;SDS011;51349;52.424;10.840;2023-03-14T08:52:41;2.15;;;1.02;;
64868;SDS011;51349;52.424;10.840;2023-03-14T08:57:42;2.03;;;1.05;;
64868;SDS011;51349;52.424;10.840;2023-03-14T09:02:43;1.33;;;0.90;;
64868;SDS011;51349;52.424;10.840;2023-03-14T09:07:43;1.13;;;1.02;;
64868;SDS011;51349;52.424;10.840;2023-03-14T09:12:44;1.95;;;1.23;;
64868;SDS011;51349;52.424;10.840;2023-03-14T09:17:45;1.60;;;0.80;;
64868;SDS011;51349;52.424;10.840;2023-03-14T09:22:45;3.80;;;1.08;;
64868;SDS011;51349;52.424;10.840;2023-03-14T09:27:46;0.70;;;0.70;;
64868;SDS011;51349;52.424;10.840;2023-03-14T09:32:47;2.17;;;1.02;;
64868;SDS011;51349;52.424;10.840;2023-03-14T09:37:47;2.33;;;1.00;;
64868;SDS011;51349;52.424;10.840;2023-03-14T09:42:50;1.88;;;1.20;;
64868;SDS011;51349;52.424;10.840;2023-03-14T09:47:52;0.82;;;0.73;;
64868;SDS011;51349;52.424;10.840;2023-03-14T09:53:01;1.13;;;0.60;;
64868;SDS011;51349;52.424;10.840;2023-03-14T09:58:08;2.30;;;0.77;;
64868;SDS011;51349;52.424;10.840;2023-03-14T10:08:12;1.25;;;0.80;;
64868;SDS011;51349;52.424;10.840;2023-03-14T10:13:17;0.80;;;0.70;;
64868;SDS011;51349;52.424;10.840;2023-03-14T10:18:29;1.33;;;0.68;;
64868;SDS011;51349;52.424;10.840;2023-03-14T10:23:31;0.88;;;0.70;;
64868;SDS011;51349;52.424;10.840;2023-03-14T10:28:34;0.70;;;0.70;;
64868;SDS011;51349;52.424;10.840;2023-03-14T10:34:04;0.90;;;0.65;;
64868;SDS011;51349;52.424;10.840;2023-03-14T10:44:39;0.50;;;0.50;;
64868;SDS011;51349;52.424;10.840;2023-03-14T10:49:41;0.30;;;0.30;;
64868;SDS011;51349;52.424;10.840;2023-03-14T10:54:41;0.40;;;0.40;;
64868;SDS011;51349;52.424;10.840;2023-03-14T10:59:47;0.55;;;0.50;;
64868;SDS011;51349;52.424;10.840;2023-03-14T11:05:01;0.40;;;0.30;;
64868;SDS011;51349;52.424;10.840;2023-03-14T11:10:31;0.35;;;0.30;;
64868;SDS011;51349;52.424;10.840;2023-03-14T11:31:31;0.45;;;0.45;;
64868;SDS011;51349;52.424;10.840;2023-03-14T11:36:55;0.50;;;0.50;;
64868;SDS011;51349;52.424;10.840;2023-03-14T11:42:09;0.75;;;0.50;;
64868;SDS011;51349;52.424;10.840;2023-03-14T11:52:41;1.95;;;0.50;;
64868;SDS011;51349;52.424;10.840;2023-03-14T11:57:50;0.40;;;0.40;;
64868;SDS011;51349;52.424;10.840;2023-03-14T12:03:04;0.57;;;0.50;;
64868;SDS011;51349;52.424;10.840;2023-03-14T12:13:36;0.40;;;0.40;;
64868;SDS011;51349;52.424;10.840;2023-03-14T12:18:38;0.82;;;0.60;;
64868;SDS011;51349;52.424;10.840;2023-03-14T12:28:43;0.40;;;0.40;;
64868;SDS011;51349;52.424;10.840;2023-03-14T12:44:43;0.40;;;0.20;;
64868;SDS011;51349;52.424;10.840;2023-03-14T12:49:47;1.20;;;1.20;;
64868;SDS011;51349;52.424;10.840;2023-03-14T13:00:22;0.40;;;0.40;;
64868;SDS011;51349;52.424;10.840;2023-03-14T13:05:23;1.90;;;0.80;;
64868;SDS011;51349;52.424;10.840;2023-03-14T13:10:29;0.82;;;0.82;;
64868;SDS011;51349;52.424;10.840;2023-03-14T13:15:40;0.30;;;0.20;;
64868;SDS011;51349;52.424;10.840;2023-03-14T13:20:50;1.08;;;0.70;;
64868;SDS011;51349;52.424;10.840;2023-03-14T13:25:53;0.35;;;0.35;;
64868;SDS011;51349;52.424;10.840;2023-03-14T13:30:56;0.30;;;0.30;;
64868;SDS011;51349;52.424;10.840;2023-03-14T13:36:03;0.45;;;0.45;;
64868;SDS011;51349;52.424;10.840;2023-03-14T13:41:05;0.40;;;0.40;;
64868;SDS011;51349;52.424;10.840;2023-03-14T13:51:21;0.52;;;0.50;;
64868;SDS011;51349;52.424;10.840;2023-03-14T13:56:28;0.40;;;0.40;;
64868;SDS011;51349;52.424;10.840;2023-03-14T14:01:32;1.33;;;0.60;;
64868;SDS011;51349;52.424;10.840;2023-03-14T14:06:38;1.60;;;0.90;;
64868;SDS011;51349;52.424;10.840;2023-03-14T14:17:38;0.90;;;0.55;;
64868;SDS011;51349;52.424;10.840;2023-03-14T14:22:50;3.67;;;1.00;;
64868;SDS011;51349;52.424;10.840;2023-03-14T14:27:51;2.65;;;1.08;;
64868;SDS011;51349;52.424;10.840;2023-03-14T14:32:52;1.88;;;1.20;;
64868;SDS011;51349;52.424;10.840;2023-03-14T14:37:53;3.33;;;1.08;;
64868;SDS011;51349;52.424;10.840;2023-03-14T14:42:54;4.40;;;1.42;;
64868;SDS011;51349;52.424;10.840;2023-03-14T14:58:28;3.10;;;1.35;;
64868;SDS011;51349;52.424;10.840;2023-03-14T15:03:33;8.13;;;1.93;;
64868;SDS011;51349;52.424;10.840;2023-03-14T15:08:35;3.63;;;1.25;;
64868;SDS011;51349;52.424;10.840;2023-03-14T15:13:37;3.78;;;1.40;;
64868;SDS011;51349;52.424;10.840;2023-03-14T15:18:38;4.43;;;1.60;;
64868;SDS011;51349;52.424;10.840;2023-03-14T15:23:38;5.63;;;1.57;;
64868;SDS011;51349;52.424;10.840;2023-03-14T15:28:39;5.50;;;1.70;;
64868;SDS011;51349;52.424;10.840;2023-03-14T15:33:40;7.23;;;2.07;;
64868;SDS011;51349;52.424;10.840;2023-03-14T15:38:41;6.03;;;1.70;;
64868;SDS011;51349;52.424;10.840;2023-03-14T15:43:41;3.90;;;1.73;;
64868;SDS011;51349;52.424;10.840;2023-03-14T15:48:43;9.43;;;2.37;;
64868;SDS011;51349;52.424;10.840;2023-03-14T15:53:44;5.23;;;1.73;;
64868;SDS011;51349;52.424;10.840;2023-03-14T15:58:45;8.83;;;2.10;;
64868;SDS011;51349;52.424;10.840;2023-03-14T16:03:49;5.23;;;2.30;;
64868;SDS011;51349;52.424;10.840;2023-03-14T16:08:52;6.20;;;2.20;;
64868;SDS011;51349;52.424;10.840;2023-03-14T16:13:53;15.53;;;8.00;;
64868;SDS011;51349;52.424;10.840;2023-03-14T16:18:54;6.20;;;2.57;;
64868;SDS011;51349;52.424;10.840;2023-03-14T16:23:54;4.13;;;2.50;;
64868;SDS011;51349;52.424;10.840;2023-03-14T16:28:55;4.17;;;1.70;;
64868;SDS011;51349;52.424;10.840;2023-03-14T16:33:59;9.07;;;2.07;;
64868;SDS011;51349;52.424;10.840;2023-03-14T16:39:02;6.27;;;1.80;;
64868;SDS011;51349;52.424;10.840;2023-03-14T16:44:03;2.43;;;1.33;;
64868;SDS011;51349;52.424;10.840;2023-03-14T16:49:04;3.90;;;1.30;;
64868;SDS011;51349;52.424;10.840;2023-03-14T16:54:05;1.90;;;1.27;;
64868;SDS011;51349;52.424;10.840;2023-03-14T16:59:06;5.70;;;1.23;;
64868;SDS011;51349;52.424;10.840;2023-03-14T17:04:07;4.50;;;1.80;;
64868;SDS011;51349;52.424;10.840;2023-03-14T17:09:08;8.40;;;1.87;;
64868;SDS011;51349;52.424;10.840;2023-03-14T17:14:08;4.33;;;1.43;;
64868;SDS011;51349;52.424;10.840;2023-03-14T17:19:09;7.47;;;1.33;;
64868;SDS011;51349;52.424;10.840;2023-03-14T17:24:10;2.60;;;1.43;;
64868;SDS011;51349;52.424;10.840;2023-03-14T17:29:10;6.03;;;1.57;;
64868;SDS011;51349;52.424;10.840;2023-03-14T17:34:17;4.37;;;1.67;;
64868;SDS011;51349;52.424;10.840;2023-03-14T17:39:17;3.63;;;1.60;;
64868;SDS011;51349;52.424;10.840;2023-03-14T17:44:18;5.07;;;1.57;;
64868;SDS011;51349;52.424;10.840;2023-03-14T17:49:19;4.27;;;1.27;;
64868;SDS011;51349;52.424;10.840;2023-03-14T17:54:19;6.03;;;1.77;;
64868;SDS011;51349;52.424;10.840;2023-03-14T17:59:20;3.37;;;1.00;;
64868;SDS011;51349;52.424;10.840;2023-03-14T18:04:21;4.17;;;1.60;;
64868;SDS011;51349;52.424;10.840;2023-03-14T18:09:21;3.43;;;1.30;;
64868;SDS011;51349;52.424;10.840;2023-03-14T18:14:22;4.53;;;1.63;;
64868;SDS011;51349;52.424;10.840;2023-03-14T18:19:25;4.83;;;1.60;;
64868;SDS011;51349;52.424;10.840;2023-03-14T18:24:26;4.57;;;1.60;;
64868;SDS011;51349;52.424;10.840;2023-03-14T18:29:27;4.00;;;1.67;;
64868;SDS011;51349;52.424;10.840;2023-03-14T18:34:27;2.47;;;1.30;;
64868;SDS011;51349;52.424;10.840;2023-03-14T18:39:28;3.23;;;1.17;;
64868;SDS011;51349;52.424;10.840;2023-03-14T18:44:29;4.47;;;1.30;;
64868;SDS011;51349;52.424;10.840;2023-03-14T18:49:30;5.10;;;1.40;;
64868;SDS011;51349;52.424;10.840;2023-03-14T18:54:32;7.00;;;1.80;;
64868;SDS011;51349;52.424;10.840;2023-03-14T18:59:33;3.20;;;1.40;;
64868;SDS011;51349;52.424;10.840;2023-03-14T19:04:34;3.57;;;1.60;;
64868;SDS011;51349;52.424;10.840;2023-03-14T19:09:34;3.00;;;1.43;;
64868;SDS011;51349;52.424;10.840;2023-03-14T19:14:35;5.73;;;2.10;;
64868;SDS011;51349;52.424;10.840;2023-03-14T19:19:36;3.20;;;1.87;;
64868;SDS011;51349;52.424;10.840;2023-03-14T19:24:36;8.30;;;2.03;;
64868;SDS011;51349;52.424;10.840;2023-03-14T19:29:37;2.30;;;1.80;;
64868;SDS011;51349;52.424;10.840;2023-03-14T19:34:41;5.27;;;1.87;;
64868;SDS011;51349;52.424;10.840;2023-03-14T19:39:43;4.53;;;1.53;;
64868;SDS011;51349;52.424;10.840;2023-03-14T19:44:45;2.93;;;1.50;;
64868;SDS011;51349;52.424;10.840;2023-03-14T19:49:46;4.10;;;1.67;;
64868;SDS011;51349;52.424;10.840;2023-03-14T19:54:47;4.63;;;1.83;;
64868;SDS011;51349;52.424;10.840;2023-03-14T19:59:47;3.13;;;1.20;;
64868;SDS011;51349;52.424;10.840;2023-03-14T20:04:48;4.03;;;1.80;;
64868;SDS011;51349;52.424;10.840;2023-03-14T20:09:53;3.50;;;1.60;;
64868;SDS011;51349;52.424;10.840;2023-03-14T20:14:53;6.70;;;2.20;;
64868;SDS011;51349;52.424;10.840;2023-03-14T20:19:54;5.70;;;1.50;;
64868;SDS011;51349;52.424;10.840;2023-03-14T20:24:55;5.47;;;1.80;;
64868;SDS011;51349;52.424;10.840;2023-03-14T20:29:56;4.30;;;1.70;;
64868;SDS011;51349;52.424;10.840;2023-03-14T20:34:58;5.10;;;1.57;;
64868;SDS011;51349;52.424;10.840;2023-03-14T20:39:59;6.83;;;2.00;;
64868;SDS011;51349;52.424;10.840;2023-03-14T20:44:59;4.93;;;1.70;;
64868;SDS011;51349;52.424;10.840;2023-03-14T20:50:00;2.43;;;1.70;;
64868;SDS011;51349;52.424;10.840;2023-03-14T20:55:01;3.33;;;1.67;;
64868;SDS011;51349;52.424;10.840;2023-03-14T21:00:02;5.90;;;1.67;;
64868;SDS011;51349;52.424;10.840;2023-03-14T21:05:06;5.10;;;2.00;;
64868;SDS011;51349;52.424;10.840;2023-03-14T21:10:08;3.70;;;1.80;;
64868;SDS011;51349;52.424;10.840;2023-03-14T21:15:10;5.43;;;1.70;;
64868;SDS011;51349;52.424;10.840;2023-03-14T21:20:13;2.93;;;1.60;;
64868;SDS011;51349;52.424;10.840;2023-03-14T21:25:15;3.30;;;1.50;;
64868;SDS011;51349;52.424;10.840;2023-03-14T21:30:16;6.67;;;1.80;;
64868;SDS011;51349;52.424;10.840;2023-03-14T21:35:17;5.60;;;1.97;;
64868;SDS011;51349;52.424;10.840;2023-03-14T21:40:18;4.37;;;1.57;;
64868;SDS011;51349;52.424;10.840;2023-03-14T21:45:23;5.47;;;1.70;;
64868;SDS011;51349;52.424;10.840;2023-03-14T21:50:25;4.17;;;1.33;;
64868;SDS011;51349;52.424;10.840;2023-03-14T21:55:26;5.90;;;1.67;;
64868;SDS011;51349;52.424;10.840;2023-03-14T22:00:27;5.30;;;1.80;;
64868;SDS011;51349;52.424;10.840;2023-03-14T22:05:27;2.53;;;1.37;;
64868;SDS011;51349;52.424;10.840;2023-03-14T22:10:28;5.80;;;1.73;;
64868;SDS011;51349;52.424;10.840;2023-03-14T22:15:29;3.93;;;1.70;;
64868;SDS011;51349;52.424;10.840;2023-03-14T22:20:29;8.77;;;1.57;;
64868;SDS011;51349;52.424;10.840;2023-03-14T22:25:30;3.87;;;1.30;;
64868;SDS011;51349;52.424;10.840;2023-03-14T22:30:31;9.67;;;2.10;;
64868;SDS011;51349;52.424;10.840;2023-03-14T22:35:31;6.07;;;1.57;;
64868;SDS011;51349;52.424;10.840;2023-03-14T22:40:32;6.43;;;1.47;;
64868;SDS011;51349;52.424;10.840;2023-03-14T22:45:33;3.00;;;1.43;;
64868;SDS011;51349;52.424;10.840;2023-03-14T22:50:33;4.77;;;1.80;;
64868;SDS011;51349;52.424;10.840;2023-03-14T22:55:36;7.03;;;1.37;;
64868;SDS011;51349;52.424;10.840;2023-03-14T23:00:37;5.33;;;1.57;;
64868;SDS011;51349;52.424;10.840;2023-03-14T23:05:38;7.57;;;2.00;;
64868;SDS011;51349;52.424;10.840;2023-03-14T23:10:38;3.13;;;1.77;;
64868;SDS011;51349;52.424;10.840;2023-03-14T23:15:40;3.47;;;1.47;;
64868;SDS011;51349;52.424;10.840;2023-03-14T23:20:41;6.13;;;1.67;;
64868;SDS011;51349;52.424;10.840;2023-03-14T23:25:42;8.90;;;1.73;;
64868;SDS011;51349;52.424;10.840;2023-03-14T23:30:43;4.60;;;1.80;;
64868;SDS011;51349;52.424;10.840;2023-03-14T23:35:43;4.70;;;2.00;;
64868;SDS011;51349;52.424;10.840;2023-03-14T23:40:44;6.83;;;1.83;;
64868;SDS011;51349;52.424;10.840;2023-03-14T23:45:48;5.57;;;1.97;;
64868;SDS011;51349;52.424;10.840;2023-03-14T23:50:52;5.33;;;1.90;;
64868;SDS011;51349;52.424;10.840;2023-03-14T23:55:58;5.43;;;1.50;;
